Altamonte Springs, Florida
Current Conditions -  °F | °C
As of 4:53 AM on Thursday 23 Oct 2014 (Local Time) from KORL Reporting Station
Clear Clear  
Wind Chill: 19°   Ceiling: Unl
Heat Index: 19°   Visibility: 10mi
Dew Point: 14°   Wind: 5mph
Humidity: 73%   Direction: 360°N
Pressure: 29.97"   Gusts: NA
Location:  28.67°N, 81.36°W
Report Text: KORL 230853Z AUTO 36004KT 10SM CLR 19/14 A2997 RMK AO2 SLP152 T01890139 56007
Loading
Personal Weather Stations






























Interactive Weather Map
Tropical Storm Tracking
New forecast layout! Learn more

10-Day Weather Forecast

Advertisements
Track Severe Weather on mobile